createdAt,value
2024-01-01T00:00:38.682Z,17.60
2024-01-01T00:03:05.735Z,17.67
2024-01-01T00:05:32.540Z,17.50
2024-01-01T00:07:59.343Z,15.95
2024-01-01T00:10:26.080Z,16.67
2024-01-01T00:12:52.931Z,17.00
2024-01-01T00:15:19.809Z,15.80
2024-01-01T00:17:47.144Z,15.50
2024-01-01T00:20:14.004Z,15.52
2024-01-01T00:22:40.797Z,16.58
2024-01-01T00:25:09.527Z,13.45
2024-01-01T00:27:36.671Z,18.63
2024-01-01T00:30:03.759Z,21.23
2024-01-01T00:32:31.103Z,23.50
2024-01-01T00:34:58.367Z,22.05
2024-01-01T00:37:25.185Z,23.92
2024-01-01T00:39:51.934Z,22.02
2024-01-01T00:42:18.610Z,18.92
2024-01-01T00:44:46.179Z,17.05
2024-01-01T00:47:13.311Z,17.42
2024-01-01T00:49:40.110Z,20.45
2024-01-01T00:52:07.253Z,22.10
2024-01-01T00:54:34.002Z,20.85
2024-01-01T00:57:01.010Z,16.80
2024-01-01T00:59:27.772Z,16.95
2024-01-01T01:01:54.668Z,16.15
2024-01-01T01:04:23.539Z,16.63
2024-01-01T01:06:50.224Z,17.92
2024-01-01T01:09:16.955Z,17.23
2024-01-01T01:11:43.682Z,15.35
2024-01-01T01:14:10.416Z,15.40
2024-01-01T01:16:37.161Z,17.20
2024-01-01T01:19:04.004Z,15.65
2024-01-01T01:21:30.650Z,15.13
2024-01-01T01:23:59.699Z,17.50
2024-01-01T01:26:26.550Z,28.92
2024-01-01T01:28:53.215Z,30.75
2024-01-01T01:31:19.997Z,18.80
2024-01-01T01:33:46.920Z,17.90
2024-01-01T01:36:15.566Z,21.30
2024-01-01T01:38:42.454Z,20.15
2024-01-01T01:41:09.350Z,17.58
2024-01-01T01:43:36.255Z,16.38
2024-01-01T01:46:03.177Z,15.52
2024-01-01T01:48:30.069Z,14.98
2024-01-01T01:50:56.924Z,15.98
2024-01-01T01:53:26.706Z,16.30
2024-01-01T01:55:54.838Z,17.42
2024-01-01T01:58:21.546Z,20.13
2024-01-01T02:00:48.759Z,19.83
2024-01-01T02:03:15.532Z,22.80
2024-01-01T02:05:42.386Z,26.55
2024-01-01T02:08:10.390Z,24.70
2024-01-01T02:10:37.594Z,23.55
2024-01-01T02:13:04.679Z,24.65
2024-01-01T02:15:31.491Z,25.92
2024-01-01T02:17:59.236Z,27.27
2024-01-01T02:20:26.229Z,28.70
2024-01-01T02:22:57.599Z,26.77
2024-01-01T02:25:24.500Z,24.70
2024-01-01T02:27:51.437Z,27.70
2024-01-01T02:30:18.384Z,26.67
2024-01-01T02:32:45.346Z,26.42
2024-01-01T02:35:12.294Z,27.38
2024-01-01T02:37:39.172Z,25.75
2024-01-01T02:40:09.494Z,27.83
2024-01-01T02:42:36.779Z,30.70
2024-01-01T02:45:03.556Z,32.03
2024-01-01T02:47:30.232Z,29.08
2024-01-01T02:49:57.106Z,31.08
2024-01-01T02:52:23.765Z,31.88
2024-01-01T02:54:50.437Z,31.10
2024-01-01T02:57:17.054Z,34.28
2024-01-01T02:59:43.707Z,32.35
2024-01-01T03:02:11.216Z,31.63
2024-01-01T03:04:38.387Z,30.25
2024-01-01T03:07:05.562Z,32.92
2024-01-01T03:09:32.310Z,32.15
2024-01-01T03:11:59.176Z,31.00
2024-01-01T03:14:25.838Z,27.63
2024-01-01T03:16:52.529Z,26.83
2024-01-01T03:19:19.229Z,26.52
2024-01-01T03:21:45.887Z,25.92
2024-01-01T03:24:12.528Z,27.25
2024-01-01T03:26:39.247Z,31.25
2024-01-01T03:29:05.937Z,28.92
2024-01-01T03:31:32.607Z,23.90
2024-01-01T03:33:59.331Z,25.85
2024-01-01T03:36:26.094Z,22.50
2024-01-01T03:38:52.730Z,22.95
2024-01-01T03:41:19.477Z,23.50
2024-01-01T03:43:46.197Z,23.02
2024-01-01T03:46:13.015Z,23.90
2024-01-01T03:48:39.858Z,26.77
2024-01-01T03:51:06.565Z,27.05
2024-01-01T03:53:33.381Z,26.85
2024-01-01T03:56:00.928Z,24.58
2024-01-01T03:58:27.648Z,23.83
2024-01-01T04:00:54.321Z,24.02
2024-01-01T04:03:21.046Z,22.90
2024-01-01T04:05:47.845Z,23.08
2024-01-01T04:08:14.551Z,23.95
2024-01-01T04:10:41.291Z,22.27
2024-01-01T04:13:07.935Z,23.60
2024-01-01T04:15:34.609Z,24.60
2024-01-01T04:18:01.350Z,24.88
2024-01-01T04:20:28.053Z,22.95
2024-01-01T04:22:54.744Z,26.17
2024-01-01T04:25:21.449Z,25.33
2024-01-01T04:27:48.336Z,25.80
2024-01-01T04:30:15.214Z,24.73
2024-01-01T04:32:42.044Z,24.63
2024-01-01T04:35:09.163Z,26.73
2024-01-01T04:37:35.922Z,23.20
2024-01-01T04:40:02.607Z,24.70
2024-01-01T04:42:29.250Z,23.90
2024-01-01T04:44:55.882Z,23.87
2024-01-01T04:47:23.826Z,22.50
2024-01-01T04:49:50.737Z,22.70
2024-01-01T04:52:17.427Z,21.03
2024-01-01T04:54:44.130Z,22.77
2024-01-01T04:57:11.072Z,20.53
2024-01-01T04:59:37.713Z,23.30
2024-01-01T05:02:04.508Z,22.50
2024-01-01T05:04:31.165Z,20.73
2024-01-01T05:06:57.802Z,20.90
2024-01-01T05:09:24.569Z,21.57
2024-01-01T05:11:51.299Z,20.43
2024-01-01T05:14:18.044Z,19.40
2024-01-01T05:16:45.506Z,17.20
2024-01-01T05:19:12.305Z,19.10
2024-01-01T05:21:38.992Z,16.50
2024-01-01T05:24:05.865Z,15.80
2024-01-01T05:26:32.491Z,14.87
2024-01-01T05:28:59.193Z,14.60
2024-01-01T05:31:25.878Z,12.27
2024-01-01T05:33:52.899Z,12.60
2024-01-01T05:36:19.628Z,12.87
2024-01-01T05:38:46.259Z,11.70
2024-01-01T05:41:13.249Z,10.87
2024-01-01T05:43:40.105Z,11.43
2024-01-01T05:46:07.325Z,10.47
2024-01-01T05:48:40.335Z,11.70
2024-01-01T05:51:08.999Z,11.18
2024-01-01T05:53:35.844Z,11.40
2024-01-01T05:56:03.995Z,10.57
2024-01-01T05:58:30.666Z,11.63
2024-01-01T06:00:57.450Z,10.97
2024-01-01T06:03:24.229Z,12.20
2024-01-01T06:05:50.951Z,11.43
2024-01-01T06:08:18.018Z,11.23
2024-01-01T06:10:45.023Z,10.97
2024-01-01T06:13:11.730Z,9.93
2024-01-01T06:15:38.351Z,11.53
2024-01-01T06:18:06.106Z,10.97
2024-01-01T06:20:33.298Z,11.03
2024-01-01T06:23:00.217Z,10.30
2024-01-01T06:25:27.738Z,10.70
2024-01-01T06:27:54.454Z,10.80
2024-01-01T06:30:21.237Z,10.67
2024-01-01T06:32:48.044Z,9.83
2024-01-01T06:35:15.216Z,8.97
2024-01-01T06:37:41.923Z,9.57
2024-01-01T06:40:09.178Z,9.47
2024-01-01T06:42:35.904Z,9.93
2024-01-01T06:45:07.945Z,9.67
2024-01-01T06:47:34.793Z,9.17
2024-01-01T06:50:01.840Z,10.17
2024-01-01T06:52:28.517Z,9.23
2024-01-01T06:54:55.177Z,8.80
2024-01-01T06:57:21.821Z,8.77
2024-01-01T06:59:48.656Z,9.00
2024-01-01T07:02:15.433Z,10.10
2024-01-01T07:04:42.510Z,9.30
2024-01-01T07:07:09.701Z,10.47
2024-01-01T07:09:36.689Z,9.97
2024-01-01T07:12:24.470Z,10.00
2024-01-01T07:14:53.274Z,10.83
2024-01-01T07:17:20.645Z,9.97
2024-01-01T07:19:47.548Z,10.40
2024-01-01T07:22:14.706Z,13.77
2024-01-01T07:24:41.397Z,10.03
2024-01-01T07:27:08.059Z,11.03
2024-01-01T07:29:34.682Z,10.33
2024-01-01T07:32:01.367Z,11.60
2024-01-01T07:34:28.065Z,9.83
2024-01-01T07:36:56.095Z,9.07
2024-01-01T07:39:24.606Z,9.73
2024-01-01T07:41:52.421Z,6.13
2024-01-01T07:44:19.226Z,5.47
2024-01-01T07:46:48.343Z,5.87
2024-01-01T07:49:15.759Z,7.17
2024-01-01T07:51:42.680Z,5.87
2024-01-01T07:54:09.405Z,5.40
2024-01-01T07:56:39.125Z,4.20
2024-01-01T07:59:05.819Z,4.30
2024-01-01T08:01:32.501Z,7.03
2024-01-01T08:03:59.148Z,10.07
2024-01-01T08:06:25.856Z,8.70
2024-01-01T08:08:52.765Z,9.57
2024-01-01T08:11:20.267Z,8.57
2024-01-01T08:13:47.166Z,8.47
2024-01-01T08:16:14.139Z,8.13
2024-01-01T08:18:40.998Z,6.13
2024-01-01T08:21:07.936Z,7.20
2024-01-01T08:23:34.845Z,6.93
2024-01-01T08:26:01.553Z,6.83
2024-01-01T08:28:28.259Z,7.67
2024-01-01T08:30:54.934Z,8.07
2024-01-01T08:33:22.084Z,7.83
2024-01-01T08:35:48.840Z,7.80
2024-01-01T08:38:15.972Z,7.17
2024-01-01T08:40:43.308Z,6.93
2024-01-01T08:43:10.077Z,7.30
2024-01-01T08:45:36.915Z,7.83
2024-01-01T08:48:03.864Z,7.80
2024-01-01T08:50:30.918Z,7.20
2024-01-01T08:52:57.636Z,6.97
2024-01-01T08:55:24.348Z,6.77
2024-01-01T08:57:52.251Z,5.13
2024-01-01T09:00:20.052Z,5.27
2024-01-01T09:02:46.843Z,4.10
2024-01-01T09:05:15.645Z,4.73
2024-01-01T09:07:42.476Z,5.23
2024-01-01T09:10:09.719Z,5.67
2024-01-01T09:12:36.461Z,5.93
2024-01-01T09:15:03.291Z,6.53
2024-01-01T09:17:30.049Z,6.53
2024-01-01T09:19:56.784Z,6.83
2024-01-01T09:22:23.986Z,6.47
2024-01-01T09:24:50.788Z,7.70
2024-01-01T09:27:17.895Z,7.57
2024-01-01T09:29:44.525Z,8.00
2024-01-01T09:32:11.217Z,6.30
2024-01-01T09:34:38.010Z,6.47
2024-01-01T09:37:04.886Z,6.90
2024-01-01T09:39:31.501Z,5.87
2024-01-01T09:41:58.264Z,6.50
2024-01-01T09:44:25.202Z,6.10
2024-01-01T09:46:52.009Z,6.47
2024-01-01T09:49:18.874Z,5.20
2024-01-01T09:51:45.651Z,5.77
2024-01-01T09:54:12.377Z,4.70
2024-01-01T09:56:39.142Z,4.50
2024-01-01T09:59:05.815Z,4.37
2024-01-01T10:01:34.466Z,4.07
2024-01-01T10:04:05.803Z,3.80
2024-01-01T10:06:33.300Z,4.37
2024-01-01T10:09:08.283Z,4.03
2024-01-01T10:14:05.203Z,5.37
2024-01-01T10:16:32.378Z,6.70
2024-01-01T10:18:59.942Z,7.27
2024-01-01T10:21:28.803Z,6.67
2024-01-01T10:24:00.855Z,7.53
2024-01-01T10:26:29.098Z,7.43
2024-01-01T10:28:55.793Z,9.30
2024-01-01T10:31:23.380Z,8.13
2024-01-01T10:33:51.139Z,7.90
2024-01-01T10:36:19.225Z,8.03
2024-01-01T10:38:46.597Z,8.30
2024-01-01T10:41:13.389Z,7.47
2024-01-01T10:43:41.934Z,7.10
2024-01-01T10:46:08.976Z,6.83
2024-01-01T10:48:36.824Z,6.63
2024-01-01T10:51:31.644Z,6.23
2024-01-01T10:54:24.850Z,7.50
2024-01-01T10:57:10.360Z,9.50
2024-01-01T10:59:59.925Z,11.03
2024-01-01T11:02:26.727Z,9.37
2024-01-01T11:05:08.744Z,8.27
2024-01-01T11:07:54.207Z,7.17
2024-01-01T11:10:45.795Z,6.10
2024-01-01T11:13:14.498Z,7.77
2024-01-01T11:15:45.265Z,8.90
2024-01-01T11:18:19.527Z,9.03
2024-01-01T11:20:53.709Z,8.43
2024-01-01T11:23:53.256Z,7.37
2024-01-01T11:26:26.726Z,5.77
2024-01-01T11:28:54.113Z,5.13
2024-01-01T11:31:20.988Z,5.50
2024-01-01T11:34:00.030Z,5.37
2024-01-01T11:36:29.469Z,7.03
2024-01-01T11:38:56.956Z,6.47
2024-01-01T11:41:27.942Z,8.17
2024-01-01T11:43:54.802Z,8.97
2024-01-01T11:46:28.347Z,7.63
2024-01-01T11:48:59.258Z,8.70
2024-01-01T11:51:26.275Z,14.20
2024-01-01T11:54:08.503Z,12.57
2024-01-01T11:56:35.410Z,9.30
2024-01-01T11:59:02.379Z,9.03
2024-01-01T12:01:29.485Z,7.87
2024-01-01T12:03:57.208Z,7.80
2024-01-01T12:06:24.244Z,9.77
2024-01-01T12:08:51.125Z,12.50
2024-01-01T12:11:18.877Z,11.43
2024-01-01T12:13:56.768Z,10.13
2024-01-01T12:16:27.877Z,9.43
2024-01-01T12:18:58.774Z,7.77
2024-01-01T12:21:26.328Z,6.93
2024-01-01T12:24:04.330Z,6.23
2024-01-01T12:26:32.765Z,5.93
2024-01-01T12:29:12.863Z,5.27
2024-01-01T12:31:43.635Z,5.60
2024-01-01T12:34:16.869Z,6.30
2024-01-01T12:36:45.302Z,6.33
2024-01-01T12:39:12.496Z,5.97
2024-01-01T12:41:39.510Z,6.70
2024-01-01T12:44:06.205Z,6.80
2024-01-01T12:46:32.964Z,6.77
2024-01-01T12:49:00.687Z,6.70
2024-01-01T12:51:28.746Z,6.00
2024-01-01T12:53:58.245Z,6.43
2024-01-01T12:56:25.763Z,7.27
2024-01-01T12:58:52.538Z,7.03
2024-01-01T13:01:19.219Z,6.93
2024-01-01T13:03:47.018Z,6.90
2024-01-01T13:06:18.843Z,6.73
2024-01-01T13:08:46.718Z,6.93
2024-01-01T13:11:13.460Z,7.00
2024-01-01T13:13:40.920Z,6.57
2024-01-01T13:16:07.963Z,7.03
2024-01-01T13:18:35.953Z,6.67
2024-01-01T13:21:03.622Z,6.63
2024-01-01T13:23:30.727Z,6.93
2024-01-01T13:25:59.044Z,6.37
2024-01-01T13:28:26.278Z,7.23
2024-01-01T13:30:53.292Z,8.27
2024-01-01T13:33:20.910Z,8.80
2024-01-01T13:35:50.118Z,7.90
2024-01-01T13:38:17.174Z,8.83
2024-01-01T13:40:44.027Z,7.50
2024-01-01T13:43:10.815Z,7.77
2024-01-01T13:45:40.892Z,8.33
2024-01-01T13:48:11.885Z,7.60
2024-01-01T13:50:39.306Z,7.67
2024-01-01T13:53:06.767Z,7.70
2024-01-01T13:55:33.894Z,8.10
2024-01-01T13:58:07.845Z,7.60
2024-01-01T14:00:37.961Z,8.05
2024-01-01T14:03:05.267Z,7.40
2024-01-01T14:05:32.403Z,7.80
2024-01-01T14:07:59.335Z,8.93
2024-01-01T14:10:26.080Z,7.77
2024-01-01T14:12:52.740Z,7.87
2024-01-01T14:15:22.323Z,9.83
2024-01-01T14:17:51.830Z,8.87
2024-01-01T14:20:19.466Z,8.93
2024-01-01T14:22:46.628Z,10.40
2024-01-01T14:25:13.607Z,9.00
2024-01-01T14:27:43.310Z,9.17
2024-01-01T14:30:13.695Z,8.83
2024-01-01T14:32:40.443Z,8.53
2024-01-01T14:35:08.342Z,8.87
2024-01-01T14:37:35.091Z,9.57
2024-01-01T14:40:02.072Z,9.63
2024-01-01T14:42:33.048Z,9.83
2024-01-01T14:44:59.839Z,9.00
2024-01-01T14:47:26.586Z,8.77
2024-01-01T14:49:53.401Z,8.53
2024-01-01T14:52:20.111Z,8.93
2024-01-01T14:54:46.815Z,9.77
2024-01-01T14:57:13.581Z,9.37
2024-01-01T14:59:40.241Z,10.13
2024-01-01T15:02:07.005Z,10.23
2024-01-01T15:04:33.842Z,8.97
2024-01-01T15:07:02.547Z,9.37
2024-01-01T15:09:29.360Z,8.27
2024-01-01T15:11:56.017Z,9.10
2024-01-01T15:14:22.681Z,9.07
2024-01-01T15:16:49.413Z,8.17
2024-01-01T15:19:16.278Z,8.80
2024-01-01T15:21:44.293Z,10.20
2024-01-01T15:24:11.073Z,9.60
2024-01-01T15:26:37.943Z,9.33
2024-01-01T15:29:04.776Z,8.67
2024-01-01T15:31:31.704Z,8.53
2024-01-01T15:33:58.491Z,11.60
2024-01-01T15:36:25.342Z,10.00
2024-01-01T15:38:52.118Z,9.17
2024-01-01T15:41:19.026Z,8.67
2024-01-01T15:43:45.831Z,9.47
2024-01-01T15:46:12.709Z,8.90
2024-01-01T15:48:39.557Z,8.43
2024-01-01T15:51:11.940Z,10.30
2024-01-01T15:53:40.898Z,8.85
2024-01-01T15:56:08.793Z,8.67
2024-01-01T15:58:35.515Z,9.40
2024-01-01T16:01:03.901Z,7.97
2024-01-01T16:03:31.004Z,8.80
2024-01-01T16:05:57.957Z,8.13
2024-01-01T16:08:25.433Z,9.97
2024-01-01T16:10:52.493Z,8.03
2024-01-01T16:13:19.565Z,8.63
2024-01-01T16:15:48.839Z,8.60
2024-01-01T16:18:15.970Z,8.23
2024-01-01T16:20:43.087Z,9.60
2024-01-01T16:23:10.320Z,9.10
2024-01-01T16:25:37.366Z,9.20
2024-01-01T16:28:04.373Z,8.03
2024-01-01T16:30:31.116Z,7.73
2024-01-01T16:32:57.958Z,7.33
2024-01-01T16:35:25.748Z,6.83
2024-01-01T16:37:52.836Z,7.23
2024-01-01T16:40:20.889Z,8.70
2024-01-01T16:42:47.690Z,7.33
2024-01-01T16:45:15.133Z,7.87
2024-01-01T16:47:42.807Z,8.87
2024-01-01T16:50:10.901Z,8.70
2024-01-01T16:52:38.042Z,7.43
2024-01-01T16:55:05.083Z,7.60
2024-01-01T16:57:35.332Z,7.67
2024-01-01T17:00:02.594Z,6.90
2024-01-01T17:02:29.303Z,7.80
2024-01-01T17:04:56.120Z,7.30
2024-01-01T17:07:23.155Z,7.30
2024-01-01T17:09:50.543Z,7.87
2024-01-01T17:12:17.247Z,7.60
2024-01-01T17:14:44.088Z,7.70
2024-01-01T17:17:10.848Z,7.80
2024-01-01T17:19:37.476Z,7.60
2024-01-01T17:22:04.365Z,6.20
2024-01-01T17:24:31.216Z,6.13
2024-01-01T17:26:57.894Z,6.27
2024-01-01T17:29:25.452Z,11.63
2024-01-01T17:31:52.265Z,10.37
2024-01-01T17:34:19.733Z,9.87
2024-01-01T17:36:46.436Z,11.50
2024-01-01T17:39:13.191Z,9.23
2024-01-01T17:41:39.922Z,8.37
2024-01-01T17:44:06.929Z,8.17
2024-01-01T17:46:33.705Z,7.23
2024-01-01T17:49:00.666Z,7.30
2024-01-01T17:51:28.119Z,7.70
2024-01-01T17:53:54.906Z,12.23
2024-01-01T17:56:21.815Z,8.17
2024-01-01T17:58:48.822Z,7.83
2024-01-01T18:01:15.753Z,7.90
2024-01-01T18:03:42.653Z,8.03
2024-01-01T18:06:09.530Z,7.77
2024-01-01T18:08:36.625Z,8.17
2024-01-01T18:11:04.444Z,7.73
2024-01-01T18:13:31.301Z,8.27
2024-01-01T18:16:00.390Z,7.23
2024-01-01T18:18:27.301Z,6.93
2024-01-01T18:20:54.082Z,7.50
2024-01-01T18:23:20.786Z,7.70
2024-01-01T18:25:47.484Z,7.07
2024-01-01T18:28:14.367Z,8.53
2024-01-01T18:30:41.118Z,7.23
2024-01-01T18:33:07.979Z,8.13
2024-01-01T18:35:34.791Z,7.97
2024-01-01T18:38:01.507Z,8.03
2024-01-01T18:40:28.234Z,7.77
2024-01-01T18:42:55.002Z,7.23
2024-01-01T18:45:21.733Z,10.90
2024-01-01T18:47:48.557Z,9.37
2024-01-01T18:50:16.790Z,6.93
2024-01-01T18:52:43.809Z,7.37
2024-01-01T18:55:10.494Z,7.13
2024-01-01T18:57:48.397Z,7.80
2024-01-01T19:00:15.387Z,7.37
2024-01-01T19:02:42.278Z,7.33
2024-01-01T19:05:09.147Z,6.83
2024-01-01T19:07:36.609Z,7.50
2024-01-01T19:10:04.044Z,6.67
2024-01-01T19:12:30.826Z,6.60
2024-01-01T19:14:57.529Z,5.90
2024-01-01T19:17:26.680Z,6.07
2024-01-01T19:19:55.064Z,5.40
2024-01-01T19:22:21.822Z,5.93
2024-01-01T19:24:51.718Z,9.50
2024-01-01T19:27:18.779Z,7.63
2024-01-01T19:29:46.013Z,6.77
2024-01-01T19:32:12.722Z,5.50
2024-01-01T19:34:47.916Z,8.63
2024-01-01T19:37:16.881Z,6.53
2024-01-01T19:39:43.563Z,5.60
2024-01-01T19:42:10.283Z,5.70
2024-01-01T19:44:37.086Z,8.60
2024-01-01T19:47:04.019Z,7.10
2024-01-01T19:49:30.743Z,6.00
2024-01-01T19:51:57.377Z,6.30
2024-01-01T19:54:24.734Z,5.90
2024-01-01T19:56:51.488Z,5.27
2024-01-01T19:59:18.189Z,4.90
2024-01-01T20:01:45.354Z,5.40
2024-01-01T20:04:13.637Z,4.70
2024-01-01T20:06:44.168Z,4.80
2024-01-01T20:09:10.940Z,4.83
2024-01-01T20:11:37.704Z,4.40
2024-01-01T20:14:11.955Z,4.83
2024-01-01T20:16:38.744Z,5.80
2024-01-01T20:19:05.459Z,5.20
2024-01-01T20:21:33.618Z,5.00
2024-01-01T20:24:00.641Z,4.93
2024-01-01T20:26:27.864Z,4.93
2024-01-01T20:28:57.363Z,4.47
2024-01-01T20:31:24.901Z,5.00
2024-01-01T20:33:52.396Z,5.00
2024-01-01T20:36:20.144Z,5.07
2024-01-01T20:38:49.143Z,5.03
2024-01-01T20:41:15.937Z,5.87
2024-01-01T20:43:43.106Z,5.63
2024-01-01T20:46:09.791Z,5.50
2024-01-01T20:48:39.717Z,6.40
2024-01-01T20:51:06.577Z,7.10
2024-01-01T20:53:33.347Z,6.60
2024-01-01T20:56:00.646Z,6.43
2024-01-01T20:58:27.430Z,5.90
2024-01-01T21:00:55.514Z,6.17
2024-01-01T21:03:22.798Z,5.87
2024-01-01T21:05:51.483Z,5.43
2024-01-01T21:08:18.367Z,5.60
2024-01-01T21:10:45.448Z,5.53
2024-01-01T21:13:12.109Z,6.10
2024-01-01T21:15:38.831Z,5.70
2024-01-01T21:18:05.930Z,5.17
2024-01-01T21:20:32.883Z,5.70
2024-01-01T21:22:59.667Z,4.97
2024-01-01T21:25:26.387Z,5.60
2024-01-01T21:27:53.259Z,5.60
2024-01-01T21:30:20.006Z,5.53
2024-01-01T21:32:46.961Z,5.27
2024-01-01T21:35:17.355Z,5.60
2024-01-01T21:37:44.576Z,5.47
2024-01-01T21:40:15.718Z,5.80
2024-01-01T21:42:42.870Z,4.83
2024-01-01T21:45:12.737Z,5.03
2024-01-01T21:47:43.102Z,5.87
2024-01-01T21:50:10.123Z,5.23
2024-01-01T21:52:37.577Z,5.50
2024-01-01T21:55:05.002Z,6.43
2024-01-01T21:57:31.690Z,4.83
2024-01-01T21:59:58.342Z,5.83
2024-01-01T22:02:28.224Z,5.13
2024-01-01T22:04:58.738Z,4.93
2024-01-01T22:07:26.761Z,5.20
2024-01-01T22:09:53.485Z,4.97
2024-01-01T22:12:22.032Z,4.80
2024-01-01T22:14:49.475Z,4.73
2024-01-01T22:17:17.774Z,5.53
2024-01-01T22:19:45.785Z,5.00
2024-01-01T22:22:12.592Z,4.93
2024-01-01T22:24:39.302Z,6.03
2024-01-01T22:27:05.941Z,5.97
2024-01-01T22:29:33.010Z,5.80
2024-01-01T22:32:00.014Z,6.43
2024-01-01T22:34:26.827Z,5.83
2024-01-01T22:36:53.515Z,6.93
2024-01-01T22:39:22.848Z,6.40
2024-01-01T22:41:50.206Z,6.80
2024-01-01T22:44:17.651Z,6.60
2024-01-01T22:46:44.590Z,6.37
2024-01-01T22:49:12.145Z,7.50
2024-01-01T22:51:38.957Z,7.17
2024-01-01T22:54:06.959Z,6.33
2024-01-01T22:56:33.724Z,6.47
2024-01-01T22:59:00.437Z,5.93
2024-01-01T23:01:27.204Z,5.97
2024-01-01T23:03:53.960Z,5.63
2024-01-01T23:06:21.132Z,5.90
2024-01-01T23:08:47.893Z,6.17
2024-01-01T23:11:14.638Z,6.30
2024-01-01T23:13:41.762Z,6.10
2024-01-01T23:16:08.721Z,6.10
2024-01-01T23:18:35.853Z,6.50
2024-01-01T23:21:03.705Z,5.57
2024-01-01T23:23:30.981Z,6.07
2024-01-01T23:25:59.315Z,5.43
2024-01-01T23:28:26.313Z,5.17
2024-01-01T23:30:53.203Z,5.27
2024-01-01T23:33:20.362Z,4.80
2024-01-01T23:35:49.228Z,4.30
2024-01-01T23:38:17.931Z,4.83
2024-01-01T23:40:44.697Z,4.53
2024-01-01T23:43:11.345Z,5.00
2024-01-01T23:45:38.175Z,4.80
2024-01-01T23:48:08.527Z,4.27
2024-01-01T23:50:35.774Z,4.57
2024-01-01T23:53:03.034Z,4.80
2024-01-01T23:55:29.923Z,3.90
2024-01-01T23:57:56.570Z,3.90
